Time;durP1;ratioP1;P1;durP2;ratioP2;P2;SDS_P1;SDS_P2;PMS_P1;PMS_P2;Temp;Humidity;BMP_temperature;BMP_pressure;BME280_temperature;BME280_humidity;BME280_pressure;Samples;Min_cycle;Max_cycle;Signal;HPM_P1;HPM_P2
2022/04/28 00:02:24;;;;;;;16.85;5.90;;;;;;;6.96;77.30;102905.06;5054105;28;20028;-76
2022/04/28 00:04:49;;;;;;;24.75;7.15;;;;;;;6.92;77.39;102908.91;5055454;28;20033;-78
2022/04/28 00:07:15;;;;;;;22.48;6.78;;;;;;;6.93;77.29;102908.81;5055517;28;20021;-77
2022/04/28 00:09:40;;;;;;;16.67;6.55;;;;;;;6.91;77.21;102912.56;5055152;28;20384;-77
2022/04/28 00:12:06;;;;;;;33.83;8.07;;;;;;;6.86;77.37;102914.72;5055064;28;20029;-77
2022/04/28 00:14:32;;;;;;;26.27;6.57;;;;;;;6.81;78.00;102915.88;5054883;28;20452;-78
2022/04/28 00:16:57;;;;;;;18.55;6.50;;;;;;;6.80;77.83;102921.34;5069525;28;20024;-77
2022/04/28 00:19:23;;;;;;;13.07;6.18;;;;;;;6.79;78.15;102920.50;5074732;28;20405;-76
2022/04/28 00:21:48;;;;;;;18.23;6.45;;;;;;;6.79;77.94;102920.50;5074414;28;20326;-76
2022/04/28 00:24:13;;;;;;;12.07;6.10;;;;;;;6.78;77.91;102916.09;5074498;28;20541;-77
2022/04/28 00:26:38;;;;;;;25.65;6.68;;;;;;;6.73;77.87;102918.22;5063806;28;20109;-77
2022/04/28 00:29:04;;;;;;;15.88;6.15;;;;;;;6.75;77.64;102913.63;5054299;28;20115;-76
2022/04/28 00:31:29;;;;;;;18.98;6.50;;;;;;;6.71;77.48;102912.13;5054401;28;20070;-76
2022/04/28 00:33:55;;;;;;;18.23;7.07;;;;;;;6.68;77.76;102911.47;5054741;28;20024;-77
2022/04/28 00:36:21;;;;;;;20.00;6.40;;;;;;;6.70;77.90;102910.41;5055927;28;20104;-78
2022/04/28 00:38:46;;;;;;;23.50;6.50;;;;;;;6.65;77.84;102909.88;5055721;28;20079;-74
2022/04/28 00:41:11;;;;;;;15.07;6.38;;;;;;;6.61;78.01;102908.38;5054023;28;20413;-77
2022/04/28 00:43:53;;;;;;;17.73;7.40;;;;;;;6.59;78.30;102911.16;5055990;28;20068;-76
2022/04/28 00:46:20;;;;;;;23.20;6.85;;;;;;;6.57;78.08;102904.19;5056934;28;20159;-76
2022/04/28 00:51:30;;;;;;;20.77;6.55;;;;;;;6.53;78.23;102900.88;5056757;28;20388;-75
2022/04/28 00:53:58;;;;;;;11.38;5.72;;;;;;;6.55;78.04;102908.78;5058343;28;20021;-75
2022/04/28 00:56:24;;;;;;;15.45;5.88;;;;;;;6.54;77.68;102902.59;5061464;28;20100;-74
2022/04/28 00:58:50;;;;;;;17.90;5.70;;;;;;;6.53;77.54;102908.91;5061397;28;20029;-76
2022/04/28 01:01:16;;;;;;;17.60;5.93;;;;;;;6.55;77.31;102906.09;5060334;28;20040;-76
2022/04/28 01:03:41;;;;;;;13.27;5.10;;;;;;;6.60;77.08;102912.00;5077056;28;20460;-77
2022/04/28 01:06:07;;;;;;;17.30;5.68;;;;;;;6.56;77.12;102907.84;5078921;28;20070;-76
2022/04/28 01:08:32;;;;;;;17.77;5.90;;;;;;;6.55;76.81;102906.09;5077776;28;20599;-76
2022/04/28 01:10:59;;;;;;;19.60;6.50;;;;;;;6.51;76.86;102901.94;5078605;28;20195;-77
2022/04/28 01:13:24;;;;;;;14.23;5.68;;;;;;;6.52;77.14;102895.63;5082643;28;20065;-77
2022/04/28 01:15:50;;;;;;;14.45;5.45;;;;;;;6.56;76.92;102897.13;5084668;28;20021;-75
2022/04/28 01:18:16;;;;;;;17.15;6.15;;;;;;;6.55;76.77;102903.44;5077243;28;20032;-77
2022/04/28 01:20:42;;;;;;;13.75;5.35;;;;;;;6.49;76.87;102899.38;5064424;28;20040;-75
2022/04/28 01:23:08;;;;;;;17.40;6.13;;;;;;;6.51;76.77;102894.78;5064184;28;20025;-78
2022/04/28 01:25:34;;;;;;;15.95;5.88;;;;;;;6.54;76.31;102899.06;5066629;28;20107;-75
2022/04/28 01:27:59;;;;;;;16.00;6.05;;;;;;;6.56;76.13;102902.50;5065841;28;20021;-77
2022/04/28 01:30:25;;;;;;;18.02;5.47;;;;;;;6.56;75.88;102913.19;5064831;28;20040;-75
2022/04/28 01:32:51;;;;;;;12.50;5.65;;;;;;;6.51;75.95;102908.16;5066431;28;20056;-75
2022/04/28 01:35:17;;;;;;;19.60;5.60;;;;;;;6.44;76.33;102912.19;5063163;28;20068;-75
2022/04/28 01:37:42;;;;;;;15.95;5.57;;;;;;;6.46;76.39;102912.94;5061572;28;20044;-77
2022/04/28 01:40:11;;;;;;;13.40;5.40;;;;;;;6.42;76.44;102910.59;5060675;28;20033;-76
2022/04/28 01:42:39;;;;;;;17.05;5.65;;;;;;;6.43;76.31;102906.97;5060614;28;20025;-76
2022/04/28 01:45:06;;;;;;;19.10;5.82;;;;;;;6.43;76.51;102901.63;5062490;28;20025;-75
2022/04/28 01:47:33;;;;;;;16.75;5.68;;;;;;;6.47;75.76;102908.44;5060376;28;20480;-76
2022/04/28 01:49:58;;;;;;;12.65;5.28;;;;;;;6.43;75.93;102901.63;5060462;28;20021;-76
2022/04/28 01:55:07;;;;;;;17.33;5.57;;;;;;;6.41;75.98;102912.41;5070886;28;20063;-75
2022/04/28 01:57:32;;;;;;;12.70;5.63;;;;;;;6.47;75.68;102911.13;5080940;28;20024;-77
2022/04/28 01:59:58;;;;;;;17.67;5.43;;;;;;;6.46;75.41;102912.09;5080913;28;20028;-76
2022/04/28 02:02:24;;;;;;;16.10;5.50;;;;;;;6.40;75.91;102908.03;5082019;28;20067;-75
2022/04/28 02:04:49;;;;;;;12.40;5.47;;;;;;;6.34;75.86;102903.94;5079568;28;20045;-75
2022/04/28 02:07:15;;;;;;;14.80;5.25;;;;;;;6.27;76.46;102905.31;5078362;28;20089;-76
2022/04/28 02:09:41;;;;;;;11.38;5.82;;;;;;;6.26;76.64;102910.75;5060765;28;20081;-76
2022/04/28 02:12:07;;;;;;;14.88;5.90;;;;;;;6.21;76.68;102907.53;5058800;28;20021;-77
2022/04/28 02:14:32;;;;;;;19.30;6.30;;;;;;;6.22;76.69;102910.13;5058572;28;20067;-75
2022/04/28 02:16:58;;;;;;;19.92;6.68;;;;;;;6.23;76.53;102914.50;5056808;28;20108;-76
2022/04/28 02:19:24;;;;;;;18.90;5.78;;;;;;;6.20;76.53;102911.19;5076574;28;20028;-76
2022/04/28 02:21:49;;;;;;;14.15;5.20;;;;;;;6.15;76.45;102908.81;5077835;28;20032;-75
2022/04/28 02:24:15;;;;;;;20.13;5.85;;;;;;;6.14;76.53;102912.44;5078007;28;20361;-78
2022/04/28 02:26:40;;;;;;;11.35;5.28;;;;;;;6.08;76.64;102918.19;5077669;28;20025;-76
2022/04/28 02:29:05;;;;;;;15.30;4.93;;;;;;;6.06;76.95;102909.44;5076270;28;20304;-77
2022/04/28 02:31:30;;;;;;;20.92;6.10;;;;;;;5.96;77.09;102919.00;5077011;28;20024;-75
2022/04/28 02:33:56;;;;;;;16.85;5.68;;;;;;;5.97;77.36;102910.88;5077851;28;20020;-76
2022/04/28 02:36:21;;;;;;;11.93;5.55;;;;;;;5.91;77.30;102912.09;5077653;28;20035;-75
2022/04/28 02:38:46;;;;;;;14.02;5.72;;;;;;;5.89;77.92;102916.69;5065563;28;20029;-75
2022/04/28 02:41:12;;;;;;;9.73;5.15;;;;;;;5.86;77.57;102922.25;5057417;28;20025;-75
2022/04/28 02:43:37;;;;;;;15.38;5.60;;;;;;;5.88;77.85;102909.66;5058397;28;20025;-76
2022/04/28 02:46:03;;;;;;;13.77;5.30;;;;;;;5.90;77.75;102912.22;5058740;28;20595;-76
2022/04/28 02:48:28;;;;;;;14.13;5.28;;;;;;;5.88;77.49;102906.97;5057515;28;20029;-75
2022/04/28 02:50:53;;;;;;;15.20;6.00;;;;;;;5.91;77.19;102906.75;5057996;28;20027;-76
2022/04/28 02:53:19;;;;;;;11.60;5.55;;;;;;;5.85;77.33;102907.19;5056452;28;20029;-76
2022/04/28 02:55:44;;;;;;;18.48;6.28;;;;;;;5.85;77.68;102903.66;5057636;28;20641;-77
2022/04/28 02:58:09;;;;;;;10.65;5.90;;;;;;;5.82;77.69;102907.38;5058350;28;20033;-76
2022/04/28 03:00:38;;;;;;;16.83;6.80;;;;;;;5.81;77.68;102910.13;5061127;28;20025;-74
2022/04/28 03:03:03;;;;;;;17.00;5.78;;;;;;;5.82;77.73;102915.41;5055973;28;20037;-75
2022/04/28 03:05:29;;;;;;;17.17;6.88;;;;;;;5.78;77.95;102911.19;5058741;28;20089;-76
2022/04/28 03:10:51;;;;;;;15.88;6.43;;;;;;;5.72;78.33;102904.44;5067253;28;20491;-77
2022/04/28 03:13:18;;;;;;;11.88;6.28;;;;;;;5.71;77.98;102905.41;5058956;28;20048;-77
2022/04/28 03:15:45;;;;;;;19.02;7.10;;;;;;;5.70;78.11;102901.00;5057093;28;20029;-75
2022/04/28 03:18:12;;;;;;;14.30;6.22;;;;;;;5.65;78.52;102904.94;5063893;28;20040;-77
2022/04/28 03:20:37;;;;;;;16.45;5.82;;;;;;;5.66;78.33;102903.97;5069360;28;20033;-76
2022/04/28 03:23:03;;;;;;;17.48;6.57;;;;;;;5.61;79.00;102911.41;5072342;28;20107;-77
2022/04/28 03:25:28;;;;;;;18.80;7.15;;;;;;;5.58;78.79;102899.16;5073236;28;20059;-77
2022/04/28 03:27:56;;;;;;;15.98;6.40;;;;;;;5.57;79.15;102909.91;5070054;28;20476;-76
2022/04/28 03:30:21;;;;;;;16.27;6.43;;;;;;;5.60;78.67;102902.56;5062956;28;20401;-77
2022/04/28 03:32:47;;;;;;;21.35;6.70;;;;;;;5.56;78.87;102897.53;5042779;28;20535;-76
2022/04/28 03:35:12;;;;;;;14.70;6.22;;;;;;;5.54;79.03;102904.78;5077014;28;20052;-76
2022/04/28 03:37:37;;;;;;;19.60;6.95;;;;;;;5.50;79.26;102904.97;5077847;28;20016;-77
2022/04/28 03:40:03;;;;;;;17.75;6.97;;;;;;;5.49;79.43;102911.25;5077655;28;20028;-77
2022/04/28 03:42:29;;;;;;;15.23;6.38;;;;;;;5.42;79.21;102909.94;5076471;28;20098;-74
2022/04/28 03:44:54;;;;;;;12.70;6.32;;;;;;;5.42;79.46;102904.59;5077284;28;20429;-78
2022/04/28 03:47:20;;;;;;;15.30;6.63;;;;;;;5.44;79.65;102902.69;5077513;28;20040;-77
2022/04/28 03:49:46;;;;;;;14.15;6.20;;;;;;;5.38;80.00;102904.91;5057103;28;20037;-77
2022/04/28 03:52:11;;;;;;;13.63;6.60;;;;;;;5.34;80.09;102904.22;5056621;28;20082;-76
2022/04/28 03:54:37;;;;;;;19.73;7.22;;;;;;;5.33;80.29;102904.34;5057246;28;20556;-76
2022/04/28 03:57:02;;;;;;;17.40;7.28;;;;;;;5.32;79.94;102898.13;5065467;28;20048;-76
2022/04/28 03:59:27;;;;;;;17.83;7.05;;;;;;;5.34;80.21;102908.69;5077604;28;20115;-75
2022/04/28 04:01:53;;;;;;;17.13;7.00;;;;;;;5.35;80.10;102903.28;5075242;28;20059;-76
2022/04/28 04:04:18;;;;;;;16.05;6.90;;;;;;;5.31;80.13;102911.56;5077055;28;20036;-77
2022/04/28 04:06:43;;;;;;;17.50;6.78;;;;;;;5.28;80.19;102917.97;5080092;28;20036;-77
2022/04/28 04:09:09;;;;;;;11.80;7.50;;;;;;;5.25;80.39;102920.81;5081550;28;20032;-76
2022/04/28 04:11:34;;;;;;;14.15;7.07;;;;;;;5.26;80.37;102904.69;5066631;28;20052;-75
2022/04/28 04:13:59;;;;;;;24.80;7.88;;;;;;;5.27;80.48;102917.13;5056642;28;20070;-75
2022/04/28 04:16:25;;;;;;;20.52;8.45;;;;;;;5.30;80.42;102904.53;5058821;28;20049;-75
2022/04/28 04:18:50;;;;;;;19.25;7.50;;;;;;;5.30;80.53;102909.88;5056693;28;20117;-76
2022/04/28 04:21:15;;;;;;;16.25;7.63;;;;;;;5.30;80.57;102918.72;5056623;28;20029;-75
2022/04/28 04:23:41;;;;;;;22.05;8.52;;;;;;;5.26;81.11;102915.38;5056611;28;20115;-74
2022/04/28 04:26:06;;;;;;;14.27;7.55;;;;;;;5.28;81.08;102913.47;5055881;28;20024;-75
2022/04/28 04:28:32;;;;;;;17.38;8.02;;;;;;;5.33;81.24;102915.88;5054964;28;20116;-78
2022/04/28 04:33:42;;;;;;;16.08;8.80;;;;;;;5.35;81.34;102927.31;5058986;28;20072;-75
2022/04/28 04:36:07;;;;;;;21.67;7.88;;;;;;;5.41;81.39;102918.91;5058382;28;20400;-77
2022/04/28 04:38:32;;;;;;;18.65;8.50;;;;;;;5.44;80.95;102929.38;5058102;28;20472;-75
2022/04/28 04:40:58;;;;;;;25.67;10.18;;;;;;;5.46;81.06;102930.16;5058105;28;20075;-76
2022/04/28 04:43:23;;;;;;;22.27;8.70;;;;;;;5.59;81.08;102927.56;5058302;28;20476;-75
2022/04/28 04:45:48;;;;;;;21.95;8.40;;;;;;;5.64;80.78;102935.28;5061982;28;20033;-76
2022/04/28 04:48:14;;;;;;;15.93;7.90;;;;;;;5.62;80.78;102934.53;5060855;28;20562;-76
2022/04/28 04:50:40;;;;;;;19.73;8.77;;;;;;;5.63;80.83;102944.25;5057506;28;20036;-76
2022/04/28 04:53:05;;;;;;;19.42;8.20;;;;;;;5.69;81.25;102943.88;5057888;28;20025;-78
2022/04/28 04:55:37;;;;;;;25.88;9.13;;;;;;;5.72;80.92;102954.34;5038814;28;20025;-74
2022/04/28 04:58:03;;;;;;;15.02;8.38;;;;;;;5.80;81.00;102956.53;5057715;28;20098;-76
2022/04/28 05:00:29;;;;;;;23.33;9.07;;;;;;;5.85;81.02;102952.59;5057216;28;20041;-75
2022/04/28 05:02:54;;;;;;;22.35;8.95;;;;;;;5.88;80.65;102956.91;5073160;28;20027;-76
2022/04/28 05:05:19;;;;;;;17.17;8.70;;;;;;;5.97;80.96;102958.13;5074634;28;20107;-76
2022/04/28 05:07:45;;;;;;;22.02;8.63;;;;;;;6.11;79.95;102960.78;5080686;28;20028;-75
2022/04/28 05:10:10;;;;;;;24.13;8.68;;;;;;;6.18;79.84;102963.91;5078120;28;20032;-75
2022/04/28 05:12:35;;;;;;;20.35;8.98;;;;;;;6.24;79.41;102964.38;5077091;28;20031;-75
2022/04/28 05:15:01;;;;;;;18.10;8.95;;;;;;;6.30;79.33;102963.09;5077033;28;20225;-76
2022/04/28 05:17:26;;;;;;;23.15;9.18;;;;;;;6.40;79.08;102972.22;5075057;28;20025;-75
2022/04/28 05:19:52;;;;;;;15.38;8.50;;;;;;;6.53;78.35;102974.91;5066736;28;20033;-76
2022/04/28 05:22:17;;;;;;;16.10;8.65;;;;;;;6.64;78.29;102975.06;5060873;28;20036;-77
2022/04/28 05:24:43;;;;;;;18.17;8.77;;;;;;;6.79;77.33;102978.50;5074041;28;20424;-76
2022/04/28 05:27:08;;;;;;;35.63;9.73;;;;;;;6.88;76.42;102982.38;5076998;28;20243;-75
2022/04/28 05:29:33;;;;;;;19.00;9.10;;;;;;;6.91;76.45;102982.16;5073450;28;20119;-76
2022/04/28 05:31:59;;;;;;;17.83;8.63;;;;;;;6.99;76.09;102995.88;5076548;28;20503;-74
2022/04/28 05:34:24;;;;;;;17.30;8.43;;;;;;;7.11;75.95;102991.47;5076824;28;20041;-74
2022/04/28 05:36:50;;;;;;;25.35;9.00;;;;;;;7.18;76.08;103004.34;5076762;28;20078;-75
2022/04/28 05:39:16;;;;;;;21.70;8.75;;;;;;;7.29;74.44;103002.75;5076216;28;20025;-76
2022/04/28 05:41:42;;;;;;;18.25;7.55;;;;;;;7.35;73.86;103005.00;5074912;28;20039;-76
2022/04/28 05:46:52;;;;;;;20.20;8.23;;;;;;;7.93;72.93;103016.91;5079179;28;20048;-75
2022/04/28 05:49:18;;;;;;;22.55;8.05;;;;;;;8.55;70.94;103011.44;5083405;28;20024;-75
2022/04/28 05:51:44;;;;;;;24.52;7.93;;;;;;;9.16;67.95;103019.34;5084146;28;20177;-75
2022/04/28 05:54:10;;;;;;;16.38;6.75;;;;;;;9.83;65.61;103023.88;5078781;28;20535;-76
2022/04/28 05:56:35;;;;;;;21.35;6.63;;;;;;;10.65;63.16;103031.53;5077918;28;20060;-77
2022/04/28 05:59:01;;;;;;;18.85;6.72;;;;;;;11.44;60.66;103036.47;5078138;28;20119;-77
2022/04/28 06:01:27;;;;;;;18.45;6.28;;;;;;;11.95;57.72;103040.97;5076202;28;20115;-75
2022/04/28 06:03:52;;;;;;;17.15;6.30;;;;;;;12.66;54.86;103040.78;5080524;28;20052;-75
2022/04/28 06:06:17;;;;;;;17.23;6.00;;;;;;;12.93;53.45;103047.34;5076897;28;20039;-77
2022/04/28 06:08:43;;;;;;;15.15;5.85;;;;;;;13.22;53.62;103047.31;5073031;28;20131;-76
2022/04/28 06:11:08;;;;;;;18.52;5.60;;;;;;;13.80;51.67;103051.72;5072941;28;20417;-76
2022/04/28 06:13:33;;;;;;;10.70;5.60;;;;;;;14.22;50.40;103062.03;5073676;28;20020;-76
2022/04/28 06:15:59;;;;;;;13.40;5.78;;;;;;;14.35;48.96;103058.94;5072149;28;20028;-75
2022/04/28 06:18:26;;;;;;;11.25;4.88;;;;;;;14.65;47.69;103057.78;5077645;28;20024;-75
2022/04/28 06:20:51;;;;;;;14.10;5.20;;;;;;;14.82;47.12;103062.31;5078351;28;20563;-75
2022/04/28 06:23:17;;;;;;;16.42;5.38;;;;;;;14.93;46.91;103069.41;5073152;28;20143;-76
2022/04/28 06:25:42;;;;;;;16.23;5.30;;;;;;;15.09;45.86;103072.22;5073998;28;20032;-75
2022/04/28 06:28:09;;;;;;;20.63;5.40;;;;;;;15.21;45.17;103071.97;5072697;28;20202;-74
2022/04/28 06:30:35;;;;;;;14.68;5.32;;;;;;;15.12;45.79;103081.91;5074370;28;20052;-74
2022/04/28 06:33:00;;;;;;;11.85;5.10;;;;;;;15.33;45.14;103077.00;5071353;28;20367;-75
2022/04/28 06:35:25;;;;;;;14.77;5.03;;;;;;;15.53;44.23;103076.75;5073463;28;20118;-75
2022/04/28 06:37:51;;;;;;;16.48;5.45;;;;;;;15.96;43.79;103081.28;5073086;28;20081;-76
2022/04/28 06:40:17;;;;;;;13.15;5.18;;;;;;;16.37;42.43;103086.00;5073625;28;20028;-74
2022/04/28 06:42:44;;;;;;;14.02;5.28;;;;;;;16.59;41.58;103092.69;5072495;28;20102;-78
2022/04/28 06:45:10;;;;;;;13.82;4.93;;;;;;;16.64;41.56;103079.44;5073108;28;20025;-76
2022/04/28 06:47:36;;;;;;;15.85;5.35;;;;;;;16.57;42.18;103097.44;5053386;28;20032;-73
2022/04/28 06:50:01;;;;;;;14.13;5.65;;;;;;;16.81;41.49;103092.06;5071208;28;20480;-76
2022/04/28 06:52:26;;;;;;;17.17;6.40;;;;;;;17.22;40.19;103094.81;5071852;28;20013;-76
2022/04/28 06:54:51;;;;;;;16.17;5.00;;;;;;;17.38;39.74;103084.91;5071111;28;20060;-75
2022/04/28 06:57:17;;;;;;;18.17;5.57;;;;;;;17.66;39.13;103101.69;5072791;28;20024;-76
2022/04/28 06:59:43;;;;;;;12.88;5.13;;;;;;;17.37;40.16;103094.09;5072305;28;20044;-74
2022/04/28 07:02:09;;;;;;;13.02;4.38;;;;;;;17.88;38.99;103100.16;5072276;28;20632;-74
2022/04/28 07:04:34;;;;;;;25.15;5.90;;;;;;;18.08;38.68;103106.03;5073143;28;20418;-77
2022/04/28 07:07:00;;;;;;;14.75;5.00;;;;;;;17.98;38.12;103106.22;5072694;28;20028;-76
2022/04/28 07:09:25;;;;;;;15.18;5.18;;;;;;;18.16;37.84;103114.16;5073776;28;20114;-76
2022/04/28 07:11:50;;;;;;;12.63;5.15;;;;;;;18.13;37.74;103112.66;5055423;28;20028;-75
2022/04/28 07:14:16;;;;;;;12.43;4.65;;;;;;;17.94;38.59;103115.78;5076090;28;20050;-76
2022/04/28 07:16:42;;;;;;;13.38;5.25;;;;;;;18.39;37.91;103119.69;5081245;28;20047;-76
2022/04/28 07:19:08;;;;;;;15.15;5.40;;;;;;;18.26;36.78;103116.69;5084890;28;20029;-75
2022/04/28 07:21:34;;;;;;;13.80;5.10;;;;;;;18.67;36.98;103116.44;5081887;28;20103;-75
2022/04/28 07:24:00;;;;;;;12.88;4.88;;;;;;;18.68;36.74;103127.19;5084066;28;20453;-74
2022/04/28 07:26:25;;;;;;;9.23;4.68;;;;;;;18.54;36.94;103120.63;5083803;28;20028;-75
2022/04/28 07:28:50;;;;;;;18.55;5.30;;;;;;;18.82;37.04;103117.41;5082539;28;20032;-77
2022/04/28 07:31:15;;;;;;;17.63;4.28;;;;;;;19.40;36.04;103125.97;5064300;28;20029;-77
2022/04/28 07:33:41;;;;;;;15.68;4.90;;;;;;;19.35;35.42;103137.44;5082277;28;20039;-76
2022/04/28 07:36:06;;;;;;;11.90;4.82;;;;;;;19.45;35.19;103131.72;5080552;28;20074;-75
2022/04/28 07:38:33;;;;;;;15.88;4.88;;;;;;;19.16;34.66;103127.88;5078570;28;20036;-74
2022/04/28 07:41:00;;;;;;;15.23;4.00;;;;;;;19.29;35.11;103127.25;5079979;28;20024;-74
2022/04/28 07:43:25;;;;;;;12.98;4.10;;;;;;;19.05;35.72;103136.50;5074605;28;20020;-77
2022/04/28 07:45:51;;;;;;;17.08;4.60;;;;;;;19.49;36.00;103139.38;5076908;28;20147;-77
2022/04/28 07:48:16;;;;;;;11.27;4.65;;;;;;;19.91;34.85;103140.66;5091359;28;20166;-77
2022/04/28 07:50:41;;;;;;;13.18;4.50;;;;;;;20.14;33.22;103134.22;5094997;28;20074;-79
2022/04/28 07:53:07;;;;;;;17.17;4.97;;;;;;;19.46;34.97;103139.75;5094786;28;20025;-79
2022/04/28 07:55:32;;;;;;;17.83;4.97;;;;;;;19.27;34.55;103142.97;5094535;28;20012;-78
2022/04/28 07:57:57;;;;;;;10.35;4.28;;;;;;;19.31;35.40;103138.84;5095038;28;20082;-78
2022/04/28 08:00:23;;;;;;;15.82;4.70;;;;;;;19.61;34.55;103133.44;5095116;28;20021;-78
2022/04/28 08:02:48;;;;;;;14.73;4.35;;;;;;;19.58;35.65;103136.56;5095495;28;20016;-77
2022/04/28 08:05:15;;;;;;;9.65;4.13;;;;;;;20.29;33.74;103137.81;5098186;28;20028;-77
2022/04/28 08:07:40;;;;;;;15.30;4.30;;;;;;;20.75;32.87;103134.81;5098903;28;20044;-77
2022/04/28 08:10:06;;;;;;;15.82;4.68;;;;;;;20.90;32.23;103142.09;5098064;28;20070;-77
2022/04/28 08:12:32;;;;;;;13.85;4.03;;;;;;;20.92;32.04;103145.50;5098332;28;20051;-74
2022/04/28 08:14:58;;;;;;;13.75;3.90;;;;;;;20.81;32.59;103141.38;5097875;28;20059;-78
2022/04/28 08:17:23;;;;;;;14.80;4.22;;;;;;;20.18;32.61;103149.22;5097144;28;20020;-76
2022/04/28 08:19:49;;;;;;;18.00;4.40;;;;;;;19.95;33.74;103144.69;5092392;28;20032;-77
2022/04/28 08:22:14;;;;;;;12.23;4.10;;;;;;;20.13;33.10;103146.22;5093760;28;20048;-77
2022/04/28 08:24:39;;;;;;;11.45;4.60;;;;;;;19.84;34.07;103139.72;5091830;28;20086;-76
2022/04/28 08:27:05;;;;;;;13.80;4.45;;;;;;;19.28;35.34;103142.78;5094819;28;20099;-77
2022/04/28 08:29:30;;;;;;;14.02;4.50;;;;;;;19.30;34.74;103143.47;5093633;28;20071;-76
2022/04/28 08:31:56;;;;;;;15.10;4.55;;;;;;;18.86;35.63;103143.31;5092996;28;20023;-78
2022/04/28 08:34:22;;;;;;;15.48;5.05;;;;;;;18.29;36.72;103141.69;5094760;28;20113;-78
2022/04/28 08:36:48;;;;;;;13.65;4.60;;;;;;;17.66;37.40;103137.94;5094044;28;20016;-78
2022/04/28 08:39:14;;;;;;;16.60;5.25;;;;;;;17.48;37.72;103142.75;5089584;28;20041;-79
2022/04/28 08:41:47;;;;;;;15.40;5.43;;;;;;;17.38;38.02;103131.19;5093329;28;20021;-77
2022/04/28 08:44:21;;;;;;;11.43;4.25;;;;;;;18.19;36.49;103146.50;5091986;28;20032;-77
2022/04/28 08:46:50;;;;;;;9.50;4.20;;;;;;;18.46;35.47;103142.50;5090745;28;20032;-74
2022/04/28 08:49:18;;;;;;;12.73;4.70;;;;;;;18.18;37.33;103144.81;5088386;28;20036;-76
2022/04/28 08:51:43;;;;;;;15.60;5.03;;;;;;;18.37;36.71;103133.47;5086868;28;20020;-76
2022/04/28 08:54:10;;;;;;;14.23;5.63;;;;;;;18.29;37.10;103133.53;5083270;28;20024;-76
2022/04/28 08:56:36;;;;;;;11.73;5.32;;;;;;;18.72;36.72;103139.44;5080963;28;20111;-75
2022/04/28 08:59:01;;;;;;;12.98;4.60;;;;;;;18.43;35.28;103137.38;5082411;28;20357;-75
2022/04/28 09:01:28;;;;;;;16.40;4.35;;;;;;;18.25;36.15;103144.97;5082255;28;20055;-77
2022/04/28 09:03:55;;;;;;;15.30;5.00;;;;;;;18.64;36.29;103137.63;5082803;28;20536;-74
2022/04/28 09:06:23;;;;;;;11.65;4.28;;;;;;;19.39;34.72;103138.78;5084302;28;20036;-78
2022/04/28 09:08:49;;;;;;;13.07;4.55;;;;;;;20.15;33.68;103138.69;5082474;28;20030;-76
2022/04/28 09:11:19;;;;;;;13.50;4.45;;;;;;;20.17;33.11;103142.91;5085460;28;20037;-77
2022/04/28 09:16:34;;;;;;;9.23;4.70;;;;;;;20.15;33.80;103130.47;5080650;28;20056;-77
2022/04/28 09:18:59;;;;;;;14.60;4.85;;;;;;;20.10;33.34;103127.47;5079152;28;20028;-75
2022/04/28 09:21:24;;;;;;;13.30;4.68;;;;;;;19.63;34.00;103123.19;5082130;28;20020;-77
2022/04/28 09:23:51;;;;;;;12.82;4.55;;;;;;;19.28;34.86;103120.13;5081409;28;20040;-76
2022/04/28 09:26:16;;;;;;;15.07;4.43;;;;;;;19.25;35.04;103120.50;5091860;28;20052;-76
2022/04/28 09:28:42;;;;;;;16.00;4.30;;;;;;;19.62;34.41;103127.81;5093563;28;20078;-78
2022/04/28 09:31:09;;;;;;;14.73;4.85;;;;;;;19.44;34.11;103130.88;5094763;28;20017;-76
2022/04/28 09:33:36;;;;;;;10.68;4.35;;;;;;;19.87;33.33;103117.47;5095526;28;20024;-75
2022/04/28 09:36:02;;;;;;;11.20;4.43;;;;;;;20.48;32.67;103132.75;5095016;28;20048;-78
2022/04/28 09:38:29;;;;;;;15.40;4.85;;;;;;;20.73;32.42;103122.38;5096601;28;20055;-78
2022/04/28 09:43:38;;;;;;;13.10;4.50;;;;;;;20.80;33.03;103121.38;5096239;28;20063;-76
2022/04/28 09:46:08;;;;;;;16.77;4.78;;;;;;;21.25;32.06;103124.75;5095788;28;20084;-76
2022/04/28 09:48:36;;;;;;;14.73;5.32;;;;;;;20.99;31.64;103127.25;5094302;28;20024;-77
2022/04/28 09:51:09;;;;;;;16.70;5.15;;;;;;;20.35;32.84;103117.91;5092481;28;20070;-75
2022/04/28 09:53:36;;;;;;;17.45;6.50;;;;;;;20.17;33.18;103125.69;5094501;28;20029;-76
2022/04/28 09:56:05;;;;;;;17.08;6.05;;;;;;;19.76;33.97;103117.09;5096633;28;20135;-77
2022/04/28 09:58:31;;;;;;;14.68;5.97;;;;;;;19.48;34.36;103117.69;5097057;28;20029;-76
2022/04/28 10:01:02;;;;;;;14.02;5.82;;;;;;;19.69;33.83;103117.84;5097057;28;20102;-78
2022/04/28 10:03:30;;;;;;;18.00;6.50;;;;;;;20.17;33.92;103121.03;5096533;28;20032;-78
2022/04/28 10:05:57;;;;;;;12.60;5.97;;;;;;;20.64;33.98;103113.41;5095751;28;20062;-76
2022/04/28 10:08:24;;;;;;;17.65;6.20;;;;;;;20.96;32.85;103119.44;5096607;28;20021;-77
2022/04/28 10:10:53;;;;;;;16.77;5.95;;;;;;;21.02;32.16;103115.91;5094324;28;20028;-77
2022/04/28 10:13:19;;;;;;;18.40;5.90;;;;;;;20.85;33.09;103109.84;5093974;28;20036;-77
2022/04/28 10:15:46;;;;;;;21.98;6.50;;;;;;;20.53;33.39;103119.34;5093654;28;20059;-77
2022/04/28 10:18:12;;;;;;;12.18;5.90;;;;;;;20.68;33.61;103109.25;5094428;28;20078;-77
2022/04/28 10:20:41;;;;;;;21.60;5.43;;;;;;;21.24;32.03;103103.03;5095547;28;20051;-78
2022/04/28 10:23:10;;;;;;;13.70;5.25;;;;;;;21.30;31.95;103109.59;5092842;28;20017;-76
2022/04/28 10:34:14;;;;;;;15.43;5.35;;;;;;;21.29;31.23;103107.91;5095797;28;20059;-77
2022/04/28 10:36:52;;;;;;;12.15;5.00;;;;;;;20.88;31.49;103119.53;5095228;28;20024;-77
2022/04/28 10:39:32;;;;;;;18.13;5.82;;;;;;;20.60;31.82;103125.78;5094479;28;20032;-75
2022/04/28 10:41:57;;;;;;;18.73;5.38;;;;;;;20.37;32.53;103113.06;5093718;28;20116;-77
2022/04/28 10:44:28;;;;;;;19.30;5.38;;;;;;;20.66;32.99;103105.84;5094768;28;20025;-77
2022/04/28 10:47:02;;;;;;;14.20;5.10;;;;;;;20.68;32.92;103117.47;5094866;28;20024;-75
2022/04/28 10:49:36;;;;;;;20.05;5.75;;;;;;;20.83;32.49;103109.22;5094099;28;20066;-75
2022/04/28 10:52:02;;;;;;;17.75;5.35;;;;;;;20.96;31.76;103113.97;5094536;28;20076;-76
2022/04/28 10:54:42;;;;;;;18.70;5.47;;;;;;;20.63;31.72;103117.19;5094160;28;20065;-78
2022/04/28 10:57:07;;;;;;;15.48;5.10;;;;;;;20.01;33.00;103118.53;5093832;28;20066;-78
2022/04/28 10:59:35;;;;;;;13.50;4.90;;;;;;;20.56;32.82;103119.88;5095587;28;20020;-78
2022/04/28 11:02:15;;;;;;;;;;;;;;;20.52;32.66;103120.41;5095886;28;20020;-78
2022/04/28 11:04:49;;;;;;;14.27;5.18;;;;;;;20.74;31.93;103111.19;5095091;28;19958;-74
2022/04/28 11:07:20;;;;;;;18.33;5.70;;;;;;;20.88;32.75;103111.34;5094327;28;20097;-76
2022/04/28 11:09:55;;;;;;;14.13;5.05;;;;;;;21.58;30.91;103105.00;5094104;28;20187;-76
2022/04/28 11:12:21;;;;;;;13.68;6.10;;;;;;;21.25;29.94;103102.84;5095675;28;20080;-77
2022/04/28 11:15:00;;;;;;;14.57;5.78;;;;;;;21.39;30.21;103103.81;5095618;28;20094;-78
2022/04/28 11:17:28;;;;;;;12.13;5.38;;;;;;;21.00;31.07;103104.31;5095253;28;20016;-77
2022/04/28 11:19:54;;;;;;;19.73;5.88;;;;;;;21.23;31.30;103102.19;5094376;28;20016;-78
2022/04/28 11:22:19;;;;;;;13.70;5.60;;;;;;;20.92;32.28;103108.03;5094543;28;20044;-76
2022/04/28 11:24:45;;;;;;;20.83;5.45;;;;;;;21.42;31.59;103108.06;5092562;28;20024;-77
2022/04/28 11:27:22;;;;;;;16.55;5.60;;;;;;;21.97;30.14;103109.03;5090147;28;20036;-78
2022/04/28 11:29:51;;;;;;;18.10;6.13;;;;;;;21.69;30.37;103089.88;5092381;28;20032;-75
2022/04/28 11:32:17;;;;;;;15.30;5.78;;;;;;;21.97;29.90;103106.28;5093665;28;20131;-76
2022/04/28 11:34:44;;;;;;;16.08;5.85;;;;;;;22.16;29.88;103101.09;5093898;28;20060;-80
2022/04/28 11:37:18;;;;;;;18.80;6.20;;;;;;;22.13;30.35;103097.72;5077858;28;20032;-76
2022/04/28 11:39:44;;;;;;;16.75;6.38;;;;;;;22.22;30.06;103092.06;5096971;28;20266;-77
2022/04/28 11:42:12;;;;;;;18.42;5.72;;;;;;;21.61;30.73;103090.91;5098867;28;20028;-78
2022/04/28 11:44:51;;;;;;;21.02;7.20;;;;;;;21.06;30.77;103084.34;5081918;28;20013;-76
2022/04/28 11:47:20;;;;;;;15.93;6.43;;;;;;;21.09;31.15;103091.31;5097611;28;20032;-78